ADDS METAR Data INFO
IDs: Format: Raw Decoded Include TAF

Data at: 0711 UTC 19 Oct 2017

KXNA 190653Z AUTO 22003KT 10SM CLR 13/08 A3013 RMK AO2 SLP192 T01280083
KXNA 190553Z AUTO 19005KT 10SM CLR 13/08 A3012 RMK AO2 SLP190 T01280083 10172 20100 402440056 58002
KXNA 190453Z AUTO 20005KT 10SM CLR 14/08 A3012 RMK AO2 SLP192 T01390083
KXNA 190353Z 19007KT 10SM CLR 11/07 A3013 RMK AO2 SLP197 T01060072
KXNA 190253Z 20003KT 10SM CLR 12/08 A3013 RMK AO2 SLP197 T01170083 51006
KXNA 190153Z 21005KT 10SM CLR 14/08 A3012 RMK AO2 SLP194 T01390083
KXNA 190053Z 00000KT 10SM CLR 14/08 A3012 RMK AO2 SLP198 T01440078
KXNA 182353Z 17008KT 10SM CLR 17/08 A3011 RMK AO2 SLP193 T01720078 10244 20172 50000
KXNA 182253Z 18011KT 10SM CLR 21/08 A3011 RMK AO2 SLP190 T02110078
KXNA 182153Z 19011KT 10SM CLR 23/07 A3011 RMK AO2 SLP190 T02330072
KXNA 182053Z 18013KT 10SM CLR 24/06 A3010 RMK AO2 SLP188 T02390061 55016
KXNA 181953Z 19011KT 10SM CLR 24/07 A3010 RMK AO2 SLP185 T02390067
KXNA 181853Z 20009KT 10SM CLR 23/07 A3013 RMK AO2 SLP197 T02280067
KXNA 181753Z 19011KT 10SM CLR 22/07 A3015 RMK AO2 SLP205 T02220072 10222 20056 58009
KXNA 181653Z 17009KT 10SM CLR 21/07 A3017 RMK AO2 SLP211 T02060067
KXNA 181553Z 19011KT 10SM CLR 18/07 A3018 RMK AO2 SLP216 T01830072
KXNA 181453Z 18007KT 10SM CLR 14/08 A3018 RMK AO2 SLP218 T01440078 53009
KXNA 181353Z 18003KT 10SM CLR 11/08 A3017 RMK AO2 SLP214 T01110078
KXNA 181253Z 00000KT 10SM CLR 08/04 A3016 RMK AO2 SLP210 T00780044
KXNA 181153Z 00000KT 10SM CLR 06/04 A3016 RMK AO2 SLP209 T00560039 10083 20056 56002
KXNA 181053Z 16004KT 10SM CLR 07/04 A3016 RMK AO2 SLP208 T00720044
KXNA 180953Z AUTO 14003KT 10SM CLR 07/04 A3015 RMK AO2 SLP205 T00670044
KXNA 180853Z AUTO 17003KT 10SM CLR 06/04 A3016 RMK AO2 SLP210 T00610044 58004
KXNA 180753Z AUTO 15003KT 10SM CLR 08/05 A3017 RMK AO2 SLP213 T00780050
KXNA 180653Z AUTO 00000KT 10SM CLR 07/05 A3018 RMK AO2 SLP214 T00670050
KXNA 180553Z AUTO 00000KT 10SM CLR 07/06 A3018 RMK AO2 SLP214 T00720056 10161 20067 402110044 58005
KXNA 180453Z AUTO 00000KT 10SM CLR 09/06 A3018 RMK AO2 SLP216 T00890056
KXNA 180353Z 00000KT 10SM CLR 09/06 A3019 RMK AO2 SLP219 T00940056
KXNA 180253Z 00000KT 10SM CLR 10/06 A3019 RMK AO2 SLP222 T01000061 51006
KXNA 180153Z 19004KT 10SM CLR 13/06 A3018 RMK AO2 SLP219 T01280061
KXNA 180053Z 20006KT 10SM CLR 14/06 A3018 RMK AO2 SLP219 T01390061
KXNA 172353Z 20005KT 10SM CLR 16/07 A3017 RMK AO2 SLP215 T01610067 10211 20161 56009
KXNA 172253Z 18006KT 10SM CLR 19/07 A3018 RMK AO2 SLP216 T01890067
KXNA 172153Z 20006KT 10SM CLR 21/05 A3019 RMK AO2 SLP218 T02060050
KXNA 172053Z 19009KT 10SM CLR 21/06 A3020 RMK AO2 SLP222 T02060056 56032
KXNA 171953Z 18008KT 10SM CLR 21/06 A3022 RMK AO2 SLP228 T02060056